ROMMA est une association bénévole à but non lucratif. Votre soutien est indispensable : ADHERER à ROMMA ou FAIRE un DON

Granges-lès-Beaumont - (26, Drôme)

Drôme des Collines (155 m)   Longitude: 04°58'E   Latitude: 45°03'N Station partenaire n°123
 

Détail journalier du     <<     >>

Température Precipitation Humidité Pression Vent Dir Rafale Dir. rafale Ensol.
Heure (°C) (mm) (%) (hPa) (km/h) (km/h) (min)
01:00 7.707410282ONO11NO0
02:00 8.3074102712NO19NNO0
03:00 7.4077102710NO18NNO0
04:00 6.807610278NO16NO0
05:00 5.707610274NNO13NNO0
06:00 5.607710273NO10ONO0
07:00 3.907710266ONO13O0
08:00 4.708110272ONO6ONO0
09:00 8.307410271E8NNO40
10:00 10.906610272---11OSO20
11:00 12.406010265O11O20
12:00 15.705310265O13O40
13:00 18.903910257NO24NE60
14:00 19.9037102411N21NNO60
15:00 20.7037102410NNO23NNE60
16:00 20.1035102310NNO19NO60
17:00 18.8036102310NNO19N50
18:00 16.804110237NNO15NNO50
19:00 13.205210237NNO11NNO0
20:00 10.706010234N10N0
21:00 8.806310245NNO10NNO0
22:00 7.907010244ENE11NNE0
23:00 6.407510244NE8NO0
minuit 5.307710244NE8NNO0

Graphique du 27-02-2019

 

Serveur OMMA